createdAt,value
2022-09-12T00:00:12.005Z,15.60
2022-09-12T00:01:13.298Z,15.60
2022-09-12T00:01:55.139Z,15.40
2022-09-12T00:02:36.952Z,15.60
2022-09-12T00:03:18.587Z,15.80
2022-09-12T00:04:01.968Z,15.50
2022-09-12T00:04:43.587Z,15.40
2022-09-12T00:05:26.478Z,15.50
2022-09-12T00:06:20.427Z,15.70
2022-09-12T00:07:04.205Z,16.00
2022-09-12T00:07:45.885Z,15.50
2022-09-12T00:08:27.561Z,15.70
2022-09-12T00:09:12.067Z,15.40
2022-09-12T00:09:53.691Z,15.80
2022-09-12T00:10:41.378Z,15.60
2022-09-12T00:11:23.606Z,15.50
2022-09-12T00:12:05.706Z,15.40
2022-09-12T00:12:47.437Z,15.50
2022-09-12T00:13:29.051Z,15.70
2022-09-12T00:14:17.484Z,15.50
2022-09-12T00:14:59.131Z,15.50
2022-09-12T00:15:42.432Z,15.70
2022-09-12T00:16:26.035Z,16.00
2022-09-12T00:17:07.682Z,15.40
2022-09-12T00:17:49.336Z,15.30
2022-09-12T00:18:32.003Z,15.50
2022-09-12T00:19:13.950Z,15.60
2022-09-12T00:19:56.022Z,15.30
2022-09-12T00:20:42.813Z,15.60
2022-09-12T00:21:24.856Z,15.70
2022-09-12T00:22:06.516Z,15.60
2022-09-12T00:22:48.186Z,15.40
2022-09-12T00:23:31.425Z,15.40
2022-09-12T00:24:13.096Z,15.50
2022-09-12T00:24:54.725Z,15.30
2022-09-12T00:25:42.466Z,15.60
2022-09-12T00:26:24.530Z,15.60
2022-09-12T00:27:06.350Z,15.90
2022-09-12T00:27:48.009Z,15.60
2022-09-12T00:28:29.636Z,15.80
2022-09-12T00:29:16.663Z,15.40
2022-09-12T00:29:58.323Z,15.50
2022-09-12T00:30:50.027Z,15.60
2022-09-12T00:31:32.176Z,15.60
2022-09-12T00:32:13.891Z,15.40
2022-09-12T00:32:55.519Z,15.70
2022-09-12T00:33:37.189Z,15.40
2022-09-12T00:34:18.834Z,15.50
2022-09-12T00:35:02.692Z,15.80
2022-09-12T00:35:53.036Z,15.30
2022-09-12T00:36:37.037Z,15.40
2022-09-12T00:37:18.709Z,15.20
2022-09-12T00:38:00.335Z,15.80
2022-09-12T00:38:43.293Z,15.50
2022-09-12T00:39:24.950Z,15.30
2022-09-12T00:40:07.206Z,15.30
2022-09-12T00:40:49.453Z,15.40
2022-09-12T00:41:34.856Z,15.50
2022-09-12T00:42:16.519Z,15.60
2022-09-12T00:42:59.014Z,15.40
2022-09-12T00:43:42.954Z,15.40
2022-09-12T00:44:24.597Z,15.40
2022-09-12T00:45:06.785Z,15.50
2022-09-12T00:45:48.503Z,15.30
2022-09-12T00:46:55.487Z,15.60
2022-09-12T00:47:37.732Z,16.00
2022-09-12T00:48:30.860Z,15.20
2022-09-12T00:49:20.765Z,15.30
2022-09-12T00:50:12.519Z,15.30
2022-09-12T00:50:54.243Z,15.20
2022-09-12T00:51:37.492Z,15.10
2022-09-12T00:52:25.413Z,15.10
2022-09-12T00:53:08.585Z,15.20
2022-09-12T00:53:52.902Z,15.20
2022-09-12T00:54:49.883Z,15.30
2022-09-12T00:55:45.401Z,15.70
2022-09-12T00:56:28.041Z,15.20
2022-09-12T00:57:11.933Z,15.10
2022-09-12T00:57:58.765Z,15.20
2022-09-12T00:58:53.911Z,15.20
2022-09-12T00:59:41.401Z,15.30
2022-09-12T01:00:25.558Z,15.40
2022-09-12T01:01:07.330Z,15.40
2022-09-12T01:01:51.608Z,15.10
2022-09-12T01:02:33.437Z,15.50
2022-09-12T01:03:19.008Z,15.10
2022-09-12T01:04:01.837Z,15.10
2022-09-12T01:04:44.565Z,15.20
2022-09-12T01:05:28.263Z,15.10
2022-09-12T01:06:27.035Z,15.30
2022-09-12T01:07:09.542Z,15.50
2022-09-12T01:07:52.312Z,15.20
2022-09-12T01:08:37.389Z,15.20
2022-09-12T01:09:22.686Z,15.40
2022-09-12T01:10:06.210Z,15.20
2022-09-12T01:10:48.873Z,15.20
2022-09-12T01:11:32.671Z,15.50
2022-09-12T01:12:15.911Z,15.10
2022-09-12T01:13:00.657Z,15.20
2022-09-12T01:13:43.946Z,15.10
2022-09-12T01:14:25.738Z,15.40
2022-09-12T01:15:08.010Z,15.30
2022-09-12T01:15:49.654Z,15.10
2022-09-12T01:16:31.485Z,15.50
2022-09-12T01:17:20.167Z,15.00
2022-09-12T01:18:40.354Z,15.20
2022-09-12T01:19:22.021Z,15.00
2022-09-12T01:20:34.505Z,15.10
2022-09-12T01:21:34.878Z,15.10
2022-09-12T01:22:36.645Z,15.00
2022-09-12T01:24:02.646Z,15.00
2022-09-12T01:25:07.683Z,15.10
2022-09-12T01:26:08.125Z,15.10
2022-09-12T01:27:15.461Z,15.00
2022-09-12T01:28:18.417Z,15.00
2022-09-12T01:29:21.877Z,15.00
2022-09-12T01:30:21.776Z,15.00
2022-09-12T01:31:17.815Z,15.10
2022-09-12T01:32:13.671Z,14.80
2022-09-12T01:33:47.643Z,15.00
2022-09-12T01:34:29.230Z,15.10
2022-09-12T01:35:23.807Z,15.20
2022-09-12T01:36:52.841Z,15.00
2022-09-12T01:37:41.768Z,15.00
2022-09-12T01:38:23.342Z,14.90
2022-09-12T01:39:51.080Z,14.90
2022-09-12T01:40:49.130Z,15.10
2022-09-12T01:41:54.517Z,14.90
2022-09-12T01:42:41.990Z,14.90
2022-09-12T01:43:26.636Z,15.10
2022-09-12T01:44:19.024Z,15.20
2022-09-12T01:45:23.193Z,14.90
2022-09-12T01:46:18.063Z,15.10
2022-09-12T01:47:12.921Z,14.90
2022-09-12T01:48:03.133Z,14.90
2022-09-12T01:49:02.201Z,15.00
2022-09-12T01:49:56.143Z,14.90
2022-09-12T01:50:52.534Z,14.90
2022-09-12T01:52:07.770Z,15.10
2022-09-12T01:52:57.141Z,14.80
2022-09-12T01:53:44.219Z,14.90
2022-09-12T01:54:36.548Z,14.80
2022-09-12T01:55:27.433Z,14.90
2022-09-12T01:56:15.514Z,15.00
2022-09-12T01:57:01.582Z,14.90
2022-09-12T01:58:03.021Z,14.90
2022-09-12T01:58:57.496Z,14.80
2022-09-12T01:59:54.655Z,14.90
2022-09-12T02:01:01.810Z,15.20
2022-09-12T02:01:54.895Z,14.80
2022-09-12T02:02:52.914Z,15.10
2022-09-12T02:03:44.955Z,14.90
2022-09-12T02:04:34.421Z,14.90
2022-09-12T02:05:28.959Z,14.90
2022-09-12T02:06:23.532Z,15.20
2022-09-12T02:07:35.894Z,15.00
2022-09-12T02:08:22.184Z,14.80
2022-09-12T02:09:09.973Z,14.90
2022-09-12T02:10:02.244Z,14.90
2022-09-12T02:10:49.995Z,15.40
2022-09-12T02:11:35.388Z,15.00
2022-09-12T02:12:23.005Z,15.30
2022-09-12T02:13:16.792Z,15.40
2022-09-12T02:14:09.270Z,14.90
2022-09-12T02:14:57.230Z,14.80
2022-09-12T02:15:46.107Z,15.20
2022-09-12T02:16:40.842Z,14.70
2022-09-12T02:17:26.218Z,14.60
2022-09-12T02:18:12.290Z,14.80
2022-09-12T02:18:59.839Z,14.90
2022-09-12T02:19:48.030Z,14.70
2022-09-12T02:20:49.215Z,14.80
2022-09-12T02:21:33.009Z,14.60
2022-09-12T02:22:19.798Z,14.90
2022-09-12T02:23:03.659Z,14.70
2022-09-12T02:23:49.017Z,14.90
2022-09-12T02:24:39.465Z,14.60
2022-09-12T02:25:22.118Z,14.90
2022-09-12T02:26:11.017Z,14.80
2022-09-12T02:27:06.052Z,15.00
2022-09-12T02:27:50.546Z,14.80
2022-09-12T02:28:38.074Z,14.70
2022-09-12T02:29:19.719Z,14.80
2022-09-12T02:30:01.629Z,15.00
2022-09-12T02:31:11.448Z,14.80
2022-09-12T02:32:04.630Z,14.80
2022-09-12T02:33:12.601Z,14.80
2022-09-12T02:34:22.058Z,14.80
2022-09-12T02:35:10.985Z,14.80
2022-09-12T02:36:23.957Z,14.90
2022-09-12T02:37:21.218Z,14.80
2022-09-12T02:38:24.547Z,14.70
2022-09-12T02:39:06.551Z,14.90
2022-09-12T02:39:48.443Z,14.80
2022-09-12T02:40:31.007Z,14.90
2022-09-12T02:41:15.973Z,14.60
2022-09-12T02:42:01.804Z,14.70
2022-09-12T02:42:43.590Z,15.10
2022-09-12T02:43:25.322Z,14.80
2022-09-12T02:44:07.050Z,14.80
2022-09-12T02:44:50.039Z,14.80
2022-09-12T02:45:34.324Z,14.70
2022-09-12T02:46:25.269Z,15.30
2022-09-12T02:47:14.117Z,15.10
2022-09-12T02:48:08.428Z,14.80
2022-09-12T02:48:50.142Z,14.70
2022-09-12T02:49:31.903Z,14.80
2022-09-12T02:50:14.169Z,15.30
2022-09-12T02:50:56.691Z,15.30
2022-09-12T02:51:38.579Z,14.80
2022-09-12T02:52:20.446Z,14.80
2022-09-12T02:53:04.925Z,14.80
2022-09-12T02:53:46.598Z,14.80
2022-09-12T02:54:28.896Z,14.90
2022-09-12T02:55:11.634Z,14.90
2022-09-12T02:55:53.590Z,14.60
2022-09-12T02:56:35.397Z,14.70
2022-09-12T02:57:22.651Z,14.70
2022-09-12T02:58:08.626Z,15.30
2022-09-12T02:58:50.512Z,14.70
2022-09-12T02:59:32.163Z,14.70
2022-09-12T03:00:14.286Z,14.90
2022-09-12T03:01:30.069Z,14.60
2022-09-12T03:02:11.731Z,14.70
2022-09-12T03:03:11.979Z,15.00
2022-09-12T03:04:29.774Z,14.90
2022-09-12T03:05:23.361Z,14.70
2022-09-12T03:06:13.915Z,14.80
2022-09-12T03:07:18.198Z,14.80
2022-09-12T03:08:24.930Z,14.50
2022-09-12T03:09:19.134Z,14.70
2022-09-12T03:10:22.921Z,14.80
2022-09-12T03:11:07.203Z,14.60
2022-09-12T03:12:05.593Z,14.70
2022-09-12T03:13:12.518Z,14.60
2022-09-12T03:14:10.562Z,14.80
2022-09-12T03:15:19.714Z,14.70
2022-09-12T03:16:28.055Z,14.60
2022-09-12T03:17:57.168Z,14.80
2022-09-12T03:19:05.066Z,14.90
2022-09-12T03:19:59.018Z,14.90
2022-09-12T03:20:59.534Z,14.70
2022-09-12T03:21:53.317Z,14.70
2022-09-12T03:23:04.283Z,14.60
2022-09-12T03:24:08.218Z,14.70
2022-09-12T03:24:56.115Z,14.70
2022-09-12T03:25:45.333Z,14.70
2022-09-12T03:26:42.527Z,14.80
2022-09-12T03:27:30.058Z,14.70
2022-09-12T03:28:15.530Z,15.10
2022-09-12T03:28:59.130Z,14.60
2022-09-12T03:29:41.411Z,15.00
2022-09-12T03:30:23.210Z,14.70
2022-09-12T03:31:16.759Z,14.80
2022-09-12T03:32:01.881Z,14.90
2022-09-12T03:32:49.234Z,14.60
2022-09-12T03:33:30.850Z,14.80
2022-09-12T03:34:13.068Z,14.50
2022-09-12T03:34:54.691Z,15.00
2022-09-12T03:35:36.353Z,14.90
2022-09-12T03:36:23.002Z,14.80
2022-09-12T03:37:05.316Z,14.50
2022-09-12T03:37:48.266Z,14.60
2022-09-12T03:38:29.893Z,15.00
2022-09-12T03:39:11.530Z,14.70
2022-09-12T03:39:53.168Z,14.80
2022-09-12T03:40:35.788Z,15.00
2022-09-12T03:41:20.750Z,14.80
2022-09-12T03:42:02.384Z,14.80
2022-09-12T03:42:44.042Z,14.70
2022-09-12T03:43:25.795Z,14.90
2022-09-12T03:44:07.869Z,14.60
2022-09-12T03:44:49.501Z,14.50
2022-09-12T03:45:31.299Z,14.70
2022-09-12T03:46:14.689Z,14.80
2022-09-12T03:46:56.354Z,14.70
2022-09-12T03:47:38.016Z,14.90
2022-09-12T03:48:21.196Z,14.60
2022-09-12T03:49:02.986Z,15.10
2022-09-12T03:49:44.614Z,14.70
2022-09-12T03:50:26.394Z,15.20
2022-09-12T03:51:09.960Z,14.60
2022-09-12T03:51:51.642Z,15.00
2022-09-12T03:52:36.504Z,14.90
2022-09-12T03:53:18.187Z,14.60
2022-09-12T03:53:59.874Z,14.60
2022-09-12T03:54:41.562Z,14.70
2022-09-12T03:55:23.269Z,14.50
2022-09-12T03:56:09.810Z,14.70
2022-09-12T03:56:51.442Z,14.60
2022-09-12T03:57:33.128Z,14.90
2022-09-12T03:58:14.757Z,14.90
2022-09-12T03:58:56.589Z,14.70
2022-09-12T03:59:38.345Z,14.60
2022-09-12T04:00:20.105Z,14.60
2022-09-12T04:01:07.219Z,15.00
2022-09-12T04:01:48.928Z,14.90
2022-09-12T04:02:33.249Z,14.50
2022-09-12T04:03:15.100Z,15.10
2022-09-12T04:03:56.731Z,14.60
2022-09-12T04:04:38.756Z,14.60
2022-09-12T04:05:20.412Z,14.60
2022-09-12T04:06:02.041Z,14.40
2022-09-12T04:06:44.069Z,14.60
2022-09-12T04:07:25.767Z,14.70
2022-09-12T04:08:07.474Z,14.70
2022-09-12T04:08:50.803Z,14.60
2022-09-12T04:09:32.436Z,14.60
2022-09-12T04:10:16.238Z,15.20
2022-09-12T04:11:24.464Z,14.60
2022-09-12T04:12:06.591Z,14.70
2022-09-12T04:12:48.229Z,14.60
2022-09-12T04:13:29.883Z,14.50
2022-09-12T04:14:11.532Z,14.50
2022-09-12T04:14:53.158Z,14.60
2022-09-12T04:15:34.834Z,14.70
2022-09-12T04:16:17.512Z,15.10
2022-09-12T04:16:59.516Z,14.70
2022-09-12T04:17:41.162Z,14.80
2022-09-12T04:18:22.793Z,14.40
2022-09-12T04:19:06.552Z,14.50
2022-09-12T04:19:48.186Z,14.40
2022-09-12T04:20:29.905Z,14.70
2022-09-12T04:21:17.242Z,14.70
2022-09-12T04:21:58.923Z,14.40
2022-09-12T04:22:40.622Z,14.80
2022-09-12T04:23:22.598Z,14.50
2022-09-12T04:24:04.374Z,14.90
2022-09-12T04:24:46.013Z,14.40
2022-09-12T04:25:28.292Z,14.60
2022-09-12T04:26:10.591Z,14.50
2022-09-12T04:26:52.283Z,14.60
2022-09-12T04:27:34.172Z,14.50
2022-09-12T04:28:15.876Z,14.80
2022-09-12T04:28:58.138Z,14.60
2022-09-12T04:29:39.768Z,14.90
2022-09-12T04:30:21.526Z,14.40
2022-09-12T04:31:09.351Z,14.80
2022-09-12T04:31:51.047Z,14.90
2022-09-12T04:32:32.694Z,14.50
2022-09-12T04:33:14.696Z,14.80
2022-09-12T04:34:00.714Z,14.40
2022-09-12T04:34:43.538Z,14.60
2022-09-12T04:35:25.470Z,14.60
2022-09-12T04:36:10.296Z,14.80
2022-09-12T04:36:51.923Z,14.50
2022-09-12T04:37:33.590Z,14.70
2022-09-12T04:38:15.267Z,14.20
2022-09-12T04:38:56.955Z,15.20
2022-09-12T04:39:38.757Z,14.70
2022-09-12T04:40:20.871Z,14.60
2022-09-12T04:41:15.398Z,14.60
2022-09-12T04:41:57.019Z,14.40
2022-09-12T04:42:38.641Z,14.40
2022-09-12T04:43:20.272Z,14.60
2022-09-12T04:44:05.622Z,14.70
2022-09-12T04:44:48.563Z,14.80
2022-09-12T04:45:30.668Z,14.50
2022-09-12T04:46:15.276Z,14.40
2022-09-12T04:46:57.167Z,14.60
2022-09-12T04:47:38.931Z,14.80
2022-09-12T04:48:20.581Z,14.70
2022-09-12T04:49:02.648Z,14.80
2022-09-12T04:49:44.259Z,14.40
2022-09-12T04:50:26.242Z,14.40
2022-09-12T04:51:08.037Z,14.40
2022-09-12T04:51:52.211Z,14.30
2022-09-12T04:52:33.869Z,14.60
2022-09-12T04:53:15.483Z,14.50
2022-09-12T04:54:03.437Z,14.70
2022-09-12T04:54:47.729Z,14.60
2022-09-12T04:55:29.437Z,14.40
2022-09-12T04:56:12.117Z,14.80
2022-09-12T04:56:54.890Z,14.40
2022-09-12T04:57:36.671Z,14.80
2022-09-12T04:58:18.296Z,14.50
2022-09-12T04:59:01.365Z,14.50
2022-09-12T04:59:43.211Z,14.60
2022-09-12T05:00:24.882Z,14.60
2022-09-12T05:01:17.559Z,14.80
2022-09-12T05:01:59.508Z,14.40
2022-09-12T05:02:44.314Z,14.40
2022-09-12T05:03:25.937Z,14.50
2022-09-12T05:04:09.619Z,14.40
2022-09-12T05:04:52.606Z,14.30
2022-09-12T05:05:36.860Z,14.40
2022-09-12T05:06:21.283Z,14.20
2022-09-12T05:07:05.743Z,14.70
2022-09-12T05:07:47.375Z,14.30
2022-09-12T05:08:29.330Z,14.40
2022-09-12T05:09:14.053Z,14.30
2022-09-12T05:09:55.696Z,14.60
2022-09-12T05:10:38.363Z,14.30
2022-09-12T05:11:25.569Z,14.40
2022-09-12T05:12:12.144Z,14.40
2022-09-12T05:12:53.813Z,14.40
2022-09-12T05:13:35.523Z,14.60
2022-09-12T05:14:17.178Z,14.40
2022-09-12T05:14:58.857Z,14.30
2022-09-12T05:15:40.558Z,14.40
2022-09-12T05:16:23.498Z,14.40
2022-09-12T05:17:05.992Z,14.30
2022-09-12T05:17:50.864Z,14.60
2022-09-12T05:18:36.467Z,14.50
2022-09-12T05:19:18.414Z,14.60
2022-09-12T05:20:00.665Z,14.40
2022-09-12T05:20:42.297Z,14.70
2022-09-12T05:21:25.094Z,14.40
2022-09-12T05:22:06.869Z,14.70
2022-09-12T05:22:48.521Z,14.40
2022-09-12T05:23:30.893Z,14.30
2022-09-12T05:24:12.614Z,14.30
2022-09-12T05:24:54.349Z,14.20
2022-09-12T05:25:35.983Z,14.40
2022-09-12T05:26:18.997Z,14.50
2022-09-12T05:27:00.719Z,14.80
2022-09-12T05:27:46.398Z,14.40
2022-09-12T05:28:35.584Z,15.10
2022-09-12T05:29:17.358Z,14.40
2022-09-12T05:29:59.063Z,14.40
2022-09-12T05:30:40.744Z,14.60
2022-09-12T05:31:25.123Z,14.70
2022-09-12T05:32:06.828Z,14.50
2022-09-12T05:32:49.598Z,14.50
2022-09-12T05:33:32.267Z,14.50
2022-09-12T05:34:14.146Z,15.00
2022-09-12T05:34:55.910Z,14.40
2022-09-12T05:35:38.301Z,14.50
2022-09-12T05:36:25.079Z,14.50
2022-09-12T05:37:06.774Z,14.40
2022-09-12T05:37:49.384Z,14.50
2022-09-12T05:38:31.124Z,14.40
2022-09-12T05:39:12.784Z,14.40
2022-09-12T05:39:54.548Z,15.10
2022-09-12T05:40:36.196Z,14.70
2022-09-12T05:41:25.745Z,14.40
2022-09-12T05:42:07.542Z,14.60
2022-09-12T05:42:49.182Z,14.60
2022-09-12T05:43:30.853Z,14.60
2022-09-12T05:44:14.172Z,14.40
2022-09-12T05:44:55.819Z,14.70
2022-09-12T05:45:37.512Z,14.50
2022-09-12T05:46:28.688Z,14.50
2022-09-12T05:47:12.317Z,14.40
2022-09-12T05:47:54.313Z,15.00
2022-09-12T05:48:37.310Z,14.50
2022-09-12T05:49:19.012Z,14.40
2022-09-12T05:50:00.641Z,14.60
2022-09-12T05:50:42.425Z,14.70
2022-09-12T05:51:31.636Z,14.90
2022-09-12T05:52:13.391Z,14.60
2022-09-12T05:52:55.082Z,14.80
2022-09-12T05:53:37.972Z,14.70
2022-09-12T05:54:20.662Z,14.70
2022-09-12T05:55:02.633Z,14.50
2022-09-12T05:55:44.269Z,14.50
2022-09-12T05:56:28.337Z,14.70
2022-09-12T05:57:10.136Z,14.70
2022-09-12T05:57:52.005Z,15.20
2022-09-12T05:58:35.655Z,14.80
2022-09-12T05:59:19.988Z,14.80
2022-09-12T06:00:02.141Z,14.80
2022-09-12T06:00:43.774Z,14.70
2022-09-12T06:01:27.304Z,14.80
2022-09-12T06:02:11.015Z,14.80
2022-09-12T06:02:53.433Z,14.70
2022-09-12T06:03:37.280Z,14.60
2022-09-12T06:04:18.966Z,15.10
2022-09-12T06:05:03.019Z,14.80
2022-09-12T06:05:47.643Z,14.70
2022-09-12T06:06:35.918Z,14.70
2022-09-12T06:07:17.559Z,14.80
2022-09-12T06:07:59.170Z,15.20
2022-09-12T06:08:43.813Z,14.80
2022-09-12T06:09:25.689Z,14.70
2022-09-12T06:10:07.540Z,14.60
2022-09-12T06:10:49.496Z,14.60
2022-09-12T06:11:33.291Z,14.80
2022-09-12T06:12:14.912Z,14.90
2022-09-12T06:12:56.544Z,14.80
2022-09-12T06:13:42.554Z,14.80
2022-09-12T06:14:24.262Z,15.10
2022-09-12T06:15:07.987Z,14.80
2022-09-12T06:15:50.049Z,14.90
2022-09-12T06:16:35.641Z,14.70
2022-09-12T06:17:17.494Z,14.90
2022-09-12T06:17:59.131Z,14.90
2022-09-12T06:18:41.608Z,14.80
2022-09-12T06:19:24.965Z,15.00
2022-09-12T06:20:07.122Z,15.10
2022-09-12T06:20:48.834Z,14.80
2022-09-12T06:21:35.009Z,15.20
2022-09-12T06:22:17.973Z,14.90
2022-09-12T06:22:59.650Z,15.30
2022-09-12T06:23:41.630Z,14.90
2022-09-12T06:24:23.322Z,15.30
2022-09-12T06:25:05.293Z,15.10
2022-09-12T06:25:50.094Z,14.90
2022-09-12T06:26:31.761Z,15.10
2022-09-12T06:27:13.487Z,15.20
2022-09-12T06:27:55.190Z,15.20
2022-09-12T06:28:39.999Z,15.30
2022-09-12T06:29:21.926Z,15.00
2022-09-12T06:30:04.023Z,14.80
2022-09-12T06:30:45.748Z,14.80
2022-09-12T06:31:30.463Z,15.40
2022-09-12T06:32:12.098Z,14.90
2022-09-12T06:32:53.778Z,15.30
2022-09-12T06:33:37.413Z,15.30
2022-09-12T06:34:19.922Z,15.20
2022-09-12T06:35:01.638Z,15.10
2022-09-12T06:35:43.457Z,15.10
2022-09-12T06:36:31.531Z,15.20
2022-09-12T06:37:13.180Z,15.20
2022-09-12T06:37:55.318Z,15.10
2022-09-12T06:38:38.231Z,15.70
2022-09-12T06:39:22.184Z,15.40
2022-09-12T06:40:04.119Z,15.40
2022-09-12T06:40:48.459Z,15.30
2022-09-12T06:41:31.252Z,15.20
2022-09-12T06:42:14.772Z,15.20
2022-09-12T06:42:56.500Z,15.20
2022-09-12T06:43:39.731Z,15.50
2022-09-12T06:44:22.713Z,15.40
2022-09-12T06:45:04.640Z,15.50
2022-09-12T06:45:49.919Z,15.30
2022-09-12T06:46:31.670Z,15.70
2022-09-12T06:47:13.310Z,15.40
2022-09-12T06:47:55.547Z,15.30
2022-09-12T06:48:41.134Z,15.30
2022-09-12T06:49:23.517Z,15.60
2022-09-12T06:50:05.650Z,15.40
2022-09-12T06:51:02.077Z,15.40
2022-09-12T06:51:44.397Z,15.40
2022-09-12T06:52:29.193Z,15.40
2022-09-12T06:53:10.821Z,15.30
2022-09-12T06:53:55.746Z,15.70
2022-09-12T06:54:37.422Z,15.80
2022-09-12T06:55:21.734Z,15.50
2022-09-12T06:56:14.667Z,15.80
2022-09-12T06:56:56.286Z,15.40
2022-09-12T06:57:38.866Z,15.80
2022-09-12T06:58:20.518Z,15.80
2022-09-12T06:59:02.190Z,15.60
2022-09-12T06:59:43.893Z,16.00
2022-09-12T07:00:25.647Z,15.70
2022-09-12T07:01:13.429Z,15.60
2022-09-12T07:01:55.350Z,15.50
2022-09-12T07:02:37.124Z,16.00
2022-09-12T07:03:19.001Z,15.70
2022-09-12T07:04:03.808Z,15.80
2022-09-12T07:04:45.844Z,15.60
2022-09-12T07:05:28.081Z,15.70
2022-09-12T07:06:12.957Z,16.10
2022-09-12T07:06:54.605Z,15.60
2022-09-12T07:07:36.278Z,15.50
2022-09-12T07:08:17.914Z,15.80
2022-09-12T07:09:01.101Z,15.60
2022-09-12T07:09:42.818Z,15.80
2022-09-12T07:10:24.491Z,15.60
2022-09-12T07:11:26.133Z,15.90
2022-09-12T07:12:08.071Z,15.60
2022-09-12T07:12:49.703Z,16.00
2022-09-12T07:13:31.353Z,16.10
2022-09-12T07:14:14.356Z,15.60
2022-09-12T07:14:56.058Z,15.70
2022-09-12T07:15:39.486Z,15.80
2022-09-12T07:16:21.193Z,15.90
2022-09-12T07:17:02.884Z,16.10
2022-09-12T07:17:44.696Z,16.10
2022-09-12T07:18:27.209Z,15.90
2022-09-12T07:19:09.706Z,16.10
2022-09-12T07:19:54.131Z,15.70
2022-09-12T07:20:39.256Z,15.90
2022-09-12T07:21:21.313Z,16.30
2022-09-12T07:22:03.049Z,16.10
2022-09-12T07:22:44.699Z,15.80
2022-09-12T07:23:26.331Z,16.40
2022-09-12T07:24:10.158Z,15.90
2022-09-12T07:24:53.586Z,15.90
2022-09-12T07:25:35.288Z,15.90
2022-09-12T07:26:17.100Z,16.10
2022-09-12T07:26:58.858Z,15.90
2022-09-12T07:27:40.574Z,16.00
2022-09-12T07:28:22.332Z,16.10
2022-09-12T07:29:32.295Z,16.30
2022-09-12T07:30:07.778Z,15.90
2022-09-12T07:30:49.438Z,16.00
2022-09-12T07:31:31.180Z,16.00
2022-09-12T07:32:13.350Z,16.00
2022-09-12T07:32:56.838Z,16.10
2022-09-12T07:33:39.627Z,16.10
2022-09-12T07:34:21.319Z,16.10
2022-09-12T07:35:03.197Z,16.40
2022-09-12T07:35:44.849Z,16.20
2022-09-12T07:36:26.553Z,16.50
2022-09-12T07:37:08.261Z,16.10
2022-09-12T07:37:49.924Z,16.30
2022-09-12T07:38:31.675Z,16.10
2022-09-12T07:39:13.446Z,16.20
2022-09-12T07:39:55.630Z,16.20
2022-09-12T07:40:37.283Z,16.20
2022-09-12T07:41:20.950Z,16.30
2022-09-12T07:42:02.828Z,16.40
2022-09-12T07:42:44.623Z,16.20
2022-09-12T07:43:26.310Z,16.30
2022-09-12T07:44:08.043Z,16.30
2022-09-12T07:44:50.921Z,16.20
2022-09-12T07:45:32.590Z,16.40
2022-09-12T07:46:14.901Z,16.60
2022-09-12T07:46:56.654Z,16.40
2022-09-12T07:47:38.358Z,16.40
2022-09-12T07:48:20.034Z,16.50
2022-09-12T07:49:01.823Z,16.60
2022-09-12T07:49:44.028Z,16.60
2022-09-12T07:50:25.745Z,16.60
2022-09-12T07:51:10.370Z,16.60
2022-09-12T07:51:52.039Z,16.50
2022-09-12T07:52:33.666Z,16.60
2022-09-12T07:53:15.917Z,16.50
2022-09-12T07:53:58.299Z,16.60
2022-09-12T07:54:40.036Z,16.70
2022-09-12T07:55:22.555Z,16.80
2022-09-12T07:56:05.484Z,16.60
2022-09-12T07:56:47.183Z,16.20
2022-09-12T07:57:29.056Z,16.90
2022-09-12T07:58:10.786Z,16.90
2022-09-12T07:58:52.439Z,16.80
2022-09-12T07:59:52.052Z,16.70
2022-09-12T08:00:37.746Z,17.00
2022-09-12T08:01:23.210Z,16.80
2022-09-12T08:02:04.952Z,16.80
2022-09-12T08:02:51.967Z,16.80
2022-09-12T08:03:33.722Z,16.80
2022-09-12T08:04:15.842Z,16.90
2022-09-12T08:04:57.492Z,16.90
2022-09-12T08:05:39.160Z,16.90
2022-09-12T08:06:25.221Z,16.90
2022-09-12T08:07:06.918Z,16.90
2022-09-12T08:07:49.705Z,17.00
2022-09-12T08:08:31.470Z,16.80
2022-09-12T08:09:15.278Z,17.00
2022-09-12T08:09:57.539Z,16.90
2022-09-12T08:10:39.306Z,17.20
2022-09-12T08:11:22.499Z,17.00
2022-09-12T08:12:04.382Z,17.40
2022-09-12T08:12:46.040Z,17.00
2022-09-12T08:13:30.923Z,17.00
2022-09-12T08:14:12.648Z,17.10
2022-09-12T08:14:54.414Z,17.10
2022-09-12T08:15:36.146Z,17.10
2022-09-12T08:16:22.078Z,17.20
2022-09-12T08:17:03.797Z,17.20
2022-09-12T08:17:45.525Z,17.10
2022-09-12T08:18:29.371Z,17.20
2022-09-12T08:19:12.019Z,17.40
2022-09-12T08:19:53.683Z,17.10
2022-09-12T08:20:35.372Z,17.30
2022-09-12T08:21:20.051Z,17.30
2022-09-12T08:22:02.812Z,17.10
2022-09-12T08:22:44.654Z,17.20
2022-09-12T08:23:28.600Z,17.10
2022-09-12T08:24:13.309Z,17.30
2022-09-12T08:24:54.950Z,17.20
2022-09-12T08:25:36.671Z,17.30
2022-09-12T08:26:18.424Z,17.30
2022-09-12T08:27:00.079Z,17.30
2022-09-12T08:27:43.079Z,17.40
2022-09-12T08:28:25.850Z,17.40
2022-09-12T08:29:07.490Z,17.40
2022-09-12T08:29:49.281Z,17.40
2022-09-12T08:30:31.008Z,17.40
2022-09-12T08:31:16.577Z,17.40
2022-09-12T08:31:58.530Z,17.40
2022-09-12T08:32:40.233Z,17.40
2022-09-12T08:33:22.385Z,17.40
2022-09-12T08:34:05.639Z,17.40
2022-09-12T08:34:47.322Z,17.40
2022-09-12T08:35:29.006Z,17.50
2022-09-12T08:36:12.080Z,17.30
2022-09-12T08:36:54.571Z,17.40
2022-09-12T08:37:36.214Z,17.30
2022-09-12T08:38:19.611Z,17.40
2022-09-12T08:39:06.637Z,17.40
2022-09-12T08:39:48.438Z,17.40
2022-09-12T08:40:30.392Z,17.30
2022-09-12T08:41:31.092Z,17.30
2022-09-12T08:42:26.641Z,17.30
2022-09-12T08:43:33.120Z,17.30
2022-09-12T08:44:45.835Z,17.50
2022-09-12T08:45:36.876Z,17.50
2022-09-12T08:46:27.195Z,17.60
2022-09-12T08:47:08.853Z,17.60
2022-09-12T08:47:53.291Z,17.70
2022-09-12T08:48:36.123Z,17.70
2022-09-12T08:49:37.677Z,17.90
2022-09-12T08:50:22.278Z,17.80
2022-09-12T08:51:05.168Z,17.80
2022-09-12T08:51:47.259Z,17.90
2022-09-12T08:52:48.201Z,17.90
2022-09-12T08:53:31.592Z,18.00
2022-09-12T08:54:24.002Z,18.00
2022-09-12T08:55:13.505Z,18.00
2022-09-12T08:56:00.205Z,18.10
2022-09-12T08:56:42.094Z,18.30
2022-09-12T08:57:24.355Z,18.40
2022-09-12T08:58:22.701Z,18.10
2022-09-12T08:59:04.411Z,18.20
2022-09-12T08:59:46.518Z,18.20
2022-09-12T09:00:40.670Z,18.20
2022-09-12T09:01:40.671Z,18.20
2022-09-12T09:02:42.090Z,18.30
2022-09-12T09:03:35.797Z,18.40
2022-09-12T09:05:01.602Z,18.40
2022-09-12T09:06:07.282Z,18.50
2022-09-12T09:07:15.078Z,18.50
2022-09-12T09:08:00.267Z,18.50
2022-09-12T09:09:04.896Z,18.60
2022-09-12T09:10:15.001Z,18.60
2022-09-12T09:11:03.506Z,18.60
2022-09-12T09:12:17.077Z,18.60
2022-09-12T09:13:10.157Z,18.70
2022-09-12T09:14:16.187Z,18.80
2022-09-12T09:15:33.886Z,18.80
2022-09-12T09:16:30.846Z,18.90
2022-09-12T09:17:20.130Z,18.90
2022-09-12T09:18:04.823Z,19.00
2022-09-12T09:18:48.351Z,19.00
2022-09-12T09:19:37.474Z,19.00
2022-09-12T09:20:27.328Z,19.10
2022-09-12T09:21:21.945Z,19.10
2022-09-12T09:22:14.406Z,19.10
2022-09-12T09:23:05.174Z,19.20
2022-09-12T09:23:51.048Z,19.20
2022-09-12T09:24:43.653Z,19.20
2022-09-12T09:25:44.424Z,19.30
2022-09-12T09:26:56.459Z,19.30
2022-09-12T09:27:46.881Z,19.30
2022-09-12T09:28:37.678Z,19.40
2022-09-12T09:29:22.757Z,19.40
2022-09-12T09:30:05.409Z,19.50
2022-09-12T09:30:47.124Z,19.60
2022-09-12T09:31:37.217Z,19.50
2022-09-12T09:32:34.323Z,19.60
2022-09-12T09:33:22.417Z,19.60
2022-09-12T09:34:13.849Z,19.60
2022-09-12T09:34:55.609Z,19.60
2022-09-12T09:35:37.859Z,19.60
2022-09-12T09:36:46.760Z,19.70
2022-09-12T09:38:02.129Z,19.70
2022-09-12T09:38:49.384Z,19.80
2022-09-12T09:39:45.501Z,19.80
2022-09-12T09:40:33.958Z,19.90
2022-09-12T09:41:56.067Z,19.90
2022-09-12T09:42:40.872Z,20.00
2022-09-12T09:43:27.445Z,20.00
2022-09-12T09:44:09.567Z,20.00
2022-09-12T09:44:54.350Z,20.00
2022-09-12T09:45:37.510Z,20.10
2022-09-12T09:46:19.381Z,20.10
2022-09-12T09:47:01.612Z,20.10
2022-09-12T09:47:53.107Z,20.20
2022-09-12T09:48:43.864Z,20.20
2022-09-12T09:49:29.278Z,20.20
2022-09-12T09:50:16.552Z,20.20
2022-09-12T09:51:00.622Z,20.20
2022-09-12T09:51:42.901Z,20.20
2022-09-12T09:52:32.057Z,20.20
2022-09-12T09:53:22.650Z,20.20
2022-09-12T09:54:54.828Z,20.30
2022-09-12T09:55:42.965Z,20.30
2022-09-12T09:56:36.237Z,20.30
2022-09-12T09:57:36.115Z,20.30